createdAt,value
2019-03-13T00:00:08.277Z,2.90
2019-03-13T00:05:13.227Z,2.90
2019-03-13T00:10:18.231Z,2.90
2019-03-13T00:15:23.066Z,2.90
2019-03-13T00:20:27.972Z,2.90
2019-03-13T00:25:32.822Z,2.90
2019-03-13T00:30:37.727Z,2.90
2019-03-13T00:35:42.658Z,3.00
2019-03-13T00:40:47.507Z,3.00
2019-03-13T00:45:52.350Z,3.10
2019-03-13T00:50:57.827Z,3.00
2019-03-13T00:56:02.629Z,3.00
2019-03-13T01:01:11.808Z,3.10
2019-03-13T01:06:21.241Z,3.10
2019-03-13T01:11:27.445Z,3.10
2019-03-13T01:16:32.411Z,3.10
2019-03-13T01:21:37.341Z,3.10
2019-03-13T01:26:42.187Z,3.20
2019-03-13T01:31:48.594Z,3.20
2019-03-13T01:36:53.417Z,3.20
2019-03-13T01:41:58.266Z,3.20
2019-03-13T01:47:03.115Z,3.20
2019-03-13T01:52:07.940Z,3.20
2019-03-13T01:57:14.113Z,3.20
2019-03-13T02:02:18.950Z,3.20
2019-03-13T02:07:24.883Z,3.20
2019-03-13T02:12:31.192Z,3.10
2019-03-13T02:17:36.893Z,3.10
2019-03-13T02:22:42.006Z,3.10
2019-03-13T02:27:48.772Z,3.20
2019-03-13T02:32:54.303Z,3.10
2019-03-13T02:37:59.534Z,3.10
2019-03-13T02:43:04.757Z,3.10
2019-03-13T02:48:10.097Z,3.10
2019-03-13T02:53:16.248Z,3.10
2019-03-13T02:58:22.192Z,3.10
2019-03-13T03:03:29.668Z,3.10
2019-03-13T03:08:34.598Z,3.10
2019-03-13T03:13:39.431Z,3.10
2019-03-13T03:18:44.421Z,3.20
2019-03-13T03:23:49.386Z,3.10
2019-03-13T03:28:54.084Z,3.20
2019-03-13T03:34:01.936Z,3.20
2019-03-13T03:39:07.044Z,3.20
2019-03-13T03:44:11.878Z,3.20
2019-03-13T03:49:16.713Z,3.20
2019-03-13T03:54:21.561Z,3.20
2019-03-13T03:59:26.388Z,3.30
2019-03-13T04:04:31.227Z,3.30
2019-03-13T04:09:36.066Z,3.30
2019-03-13T04:14:40.817Z,3.30
2019-03-13T04:19:45.593Z,3.30
2019-03-13T04:24:50.520Z,3.30
2019-03-13T04:29:55.283Z,3.40
2019-03-13T04:35:00.033Z,3.40
2019-03-13T04:40:07.061Z,3.40
2019-03-13T04:45:12.353Z,3.40
2019-03-13T04:50:17.392Z,3.40
2019-03-13T04:55:22.232Z,3.40
2019-03-13T05:00:27.056Z,3.40
2019-03-13T05:05:45.290Z,3.50
2019-03-13T05:10:51.403Z,3.50
2019-03-13T05:15:56.241Z,3.50
2019-03-13T05:21:01.497Z,3.50
2019-03-13T05:26:06.424Z,3.50
2019-03-13T05:31:11.268Z,3.50
2019-03-13T05:36:17.005Z,3.50
2019-03-13T05:41:22.437Z,3.60
2019-03-13T05:46:27.315Z,3.60
2019-03-13T05:51:32.137Z,3.70
2019-03-13T05:56:36.978Z,3.80
2019-03-13T06:01:41.814Z,3.90
2019-03-13T06:06:46.638Z,4.00
2019-03-13T06:11:51.464Z,4.10
2019-03-13T06:16:56.317Z,4.20
2019-03-13T06:22:01.350Z,4.30
2019-03-13T06:27:06.734Z,4.30
2019-03-13T06:32:11.556Z,4.40
2019-03-13T06:37:16.321Z,4.40
2019-03-13T06:42:21.166Z,4.40
2019-03-13T06:47:26.013Z,4.40
2019-03-13T06:52:31.805Z,4.50
2019-03-13T06:57:37.319Z,4.40
2019-03-13T07:02:46.538Z,4.40
2019-03-13T07:07:52.934Z,4.40
2019-03-13T07:13:11.348Z,4.30
2019-03-13T07:18:26.968Z,4.20
2019-03-13T07:23:43.692Z,4.00
2019-03-13T07:28:52.492Z,3.90
2019-03-13T07:33:58.371Z,3.80
2019-03-13T07:39:07.786Z,3.80
2019-03-13T07:44:32.409Z,3.70
2019-03-13T07:49:54.924Z,3.70
2019-03-13T07:55:10.267Z,3.70
2019-03-13T08:00:16.734Z,3.70
2019-03-13T08:05:32.345Z,3.70
2019-03-13T08:10:50.805Z,3.70
2019-03-13T08:15:59.844Z,3.70
2019-03-13T08:21:21.107Z,3.80
2019-03-13T08:26:33.300Z,3.80
2019-03-13T08:31:48.711Z,3.90
2019-03-13T08:37:11.544Z,3.80
2019-03-13T08:42:18.016Z,3.70
2019-03-13T08:47:27.165Z,3.80
2019-03-13T08:52:33.655Z,3.80
2019-03-13T08:57:42.882Z,4.00
2019-03-13T09:03:01.294Z,4.00
2019-03-13T09:08:07.775Z,4.00
2019-03-13T09:13:14.251Z,4.10
2019-03-13T09:18:20.657Z,4.10
2019-03-13T09:23:43.468Z,4.20
2019-03-13T09:29:01.748Z,4.40
2019-03-13T09:34:17.258Z,4.50
2019-03-13T09:39:26.231Z,4.70
2019-03-13T09:44:32.938Z,5.10
2019-03-13T09:49:55.270Z,5.30
2019-03-13T09:55:10.512Z,5.40
2019-03-13T10:00:32.870Z,5.50
2019-03-13T10:05:55.375Z,5.70
2019-03-13T10:11:04.623Z,6.00
2019-03-13T10:16:23.162Z,6.20
2019-03-13T10:21:29.632Z,6.30
2019-03-13T10:26:41.974Z,6.40
2019-03-13T10:32:04.596Z,6.40
2019-03-13T10:37:16.941Z,6.50
2019-03-13T10:42:23.427Z,6.60
2019-03-13T10:47:29.907Z,6.50
2019-03-13T10:52:36.379Z,6.30
2019-03-13T10:57:48.547Z,6.30
2019-03-13T11:03:13.137Z,6.80
2019-03-13T11:08:22.412Z,7.10
2019-03-13T11:13:28.889Z,7.60
2019-03-13T11:18:38.145Z,7.90
2019-03-13T11:23:44.609Z,7.60
2019-03-13T11:29:05.885Z,7.60
2019-03-13T11:34:12.356Z,8.00
2019-03-13T11:39:18.838Z,8.80
2019-03-13T11:44:28.031Z,9.50
2019-03-13T11:49:34.516Z,9.20
2019-03-13T11:54:49.727Z,8.40
2019-03-13T11:59:56.195Z,8.30
2019-03-13T12:05:02.687Z,8.30
2019-03-13T12:10:25.433Z,8.20
2019-03-13T12:15:31.884Z,8.10
2019-03-13T12:20:41.238Z,8.00
2019-03-13T12:25:47.812Z,8.10
2019-03-13T12:31:09.322Z,8.10
2019-03-13T12:36:32.050Z,8.10
2019-03-13T12:41:38.584Z,8.20
2019-03-13T12:46:54.085Z,8.60
2019-03-13T12:52:09.577Z,8.90
2019-03-13T12:57:30.908Z,9.20
2019-03-13T13:02:46.388Z,9.20
2019-03-13T13:07:55.897Z,9.00
2019-03-13T13:13:08.746Z,9.00
2019-03-13T13:18:31.452Z,8.70
2019-03-13T13:23:36.285Z,8.60
2019-03-13T13:28:41.150Z,8.40
2019-03-13T13:33:46.246Z,8.30
2019-03-13T13:38:51.084Z,8.40
2019-03-13T13:43:55.933Z,8.50
2019-03-13T13:49:00.768Z,8.40
2019-03-13T13:54:05.692Z,8.70
2019-03-13T13:59:10.527Z,8.90
2019-03-13T14:04:15.467Z,9.10
2019-03-13T14:09:21.314Z,9.30
2019-03-13T14:14:27.864Z,9.20
2019-03-13T14:19:32.891Z,9.50
2019-03-13T14:24:37.792Z,9.40
2019-03-13T14:29:42.594Z,9.30
2019-03-13T14:34:47.713Z,9.30
2019-03-13T14:39:52.536Z,9.10
2019-03-13T14:44:57.379Z,8.90
2019-03-13T14:50:02.303Z,9.30
2019-03-13T14:55:10.019Z,9.10
2019-03-13T15:00:25.419Z,8.90
2019-03-13T15:05:31.743Z,8.90
2019-03-13T15:10:36.573Z,8.80
2019-03-13T15:15:41.393Z,8.80
2019-03-13T15:20:46.222Z,8.90
2019-03-13T15:25:51.055Z,8.90
2019-03-13T15:30:55.988Z,8.80
2019-03-13T15:36:00.946Z,8.70
2019-03-13T15:41:06.052Z,8.70
2019-03-13T15:46:10.872Z,8.50
2019-03-13T15:51:15.711Z,8.50
2019-03-13T15:56:20.542Z,8.40
2019-03-13T16:01:25.374Z,8.30
2019-03-13T16:06:30.208Z,8.30
2019-03-13T16:11:35.078Z,8.20
2019-03-13T16:16:39.983Z,8.10
2019-03-13T16:21:45.425Z,8.10
2019-03-13T16:26:50.261Z,8.00
2019-03-13T16:31:55.199Z,7.90
2019-03-13T16:37:00.226Z,7.90
2019-03-13T16:42:05.068Z,7.80
2019-03-13T16:47:09.925Z,7.70
2019-03-13T16:52:14.848Z,7.60
2019-03-13T16:57:19.709Z,7.60
2019-03-13T17:02:24.584Z,7.60
2019-03-13T17:07:29.417Z,7.60
2019-03-13T17:12:34.500Z,7.50
2019-03-13T17:17:39.404Z,7.60
2019-03-13T17:22:45.207Z,7.50
2019-03-13T17:27:50.383Z,7.50
2019-03-13T17:32:55.275Z,7.50
2019-03-13T17:38:00.187Z,7.40
2019-03-13T17:43:05.033Z,7.40
2019-03-13T17:48:09.891Z,7.30
2019-03-13T17:53:14.827Z,7.30
2019-03-13T17:58:22.520Z,7.30
2019-03-13T18:03:26.417Z,7.30
2019-03-13T18:08:34.205Z,7.20
2019-03-13T18:13:39.701Z,7.20
2019-03-13T18:18:44.743Z,7.20
2019-03-13T18:23:49.745Z,7.20
2019-03-13T18:28:54.798Z,7.10
2019-03-13T18:33:59.706Z,7.10
2019-03-13T18:39:05.484Z,7.20
2019-03-13T18:44:10.334Z,7.20
2019-03-13T18:49:15.174Z,7.20
2019-03-13T18:54:20.021Z,7.30
2019-03-13T18:59:24.857Z,7.30
2019-03-13T19:04:29.711Z,7.40
2019-03-13T19:09:40.583Z,7.40
2019-03-13T19:14:47.219Z,7.30
2019-03-13T19:19:54.159Z,7.30
2019-03-13T19:24:58.991Z,7.30
2019-03-13T19:30:05.907Z,7.20
2019-03-13T19:35:10.750Z,7.20
2019-03-13T19:40:18.367Z,7.20
2019-03-13T19:45:26.192Z,7.20
2019-03-13T19:50:31.292Z,7.20
2019-03-13T19:55:36.498Z,7.10
2019-03-13T20:00:41.347Z,7.10
2019-03-13T20:05:46.759Z,7.10
2019-03-13T20:10:51.651Z,7.10
2019-03-13T20:15:56.610Z,7.10
2019-03-13T20:21:01.455Z,7.10
2019-03-13T20:26:06.572Z,7.00
2019-03-13T20:31:11.601Z,7.10
2019-03-13T20:36:16.453Z,7.10
2019-03-13T20:41:21.483Z,7.10
2019-03-13T20:46:26.333Z,7.10
2019-03-13T20:51:31.179Z,7.00
2019-03-13T20:56:36.019Z,7.00
2019-03-13T21:01:42.015Z,7.00
2019-03-13T21:06:47.014Z,6.90
2019-03-13T21:11:51.855Z,6.80
2019-03-13T21:16:56.780Z,6.80
2019-03-13T21:22:04.474Z,6.80
2019-03-13T21:27:08.358Z,6.70
2019-03-13T21:32:13.202Z,6.60
2019-03-13T21:37:18.046Z,6.60
2019-03-13T21:42:23.215Z,6.60
2019-03-13T21:47:28.158Z,6.70
2019-03-13T21:52:33.105Z,6.70
2019-03-13T21:57:37.993Z,6.80
2019-03-13T22:02:42.834Z,6.80
2019-03-13T22:07:47.771Z,6.80
2019-03-13T22:12:52.608Z,6.80
2019-03-13T22:17:57.471Z,6.90
2019-03-13T22:23:02.318Z,6.90
2019-03-13T22:28:07.178Z,6.90
2019-03-13T22:33:12.003Z,6.90
2019-03-13T22:38:16.845Z,6.90
2019-03-13T22:43:21.964Z,6.90
2019-03-13T22:48:26.859Z,6.90
2019-03-13T22:53:31.812Z,6.80
2019-03-13T22:58:36.775Z,6.80
2019-03-13T23:03:41.627Z,6.80
2019-03-13T23:08:46.487Z,6.80
2019-03-13T23:13:51.455Z,6.80
2019-03-13T23:18:56.313Z,6.80
2019-03-13T23:24:01.258Z,6.70
2019-03-13T23:29:06.110Z,6.70
2019-03-13T23:34:11.070Z,6.60
2019-03-13T23:39:16.012Z,6.60
2019-03-13T23:44:20.940Z,6.60
2019-03-13T23:49:25.781Z,6.50
2019-03-13T23:54:30.630Z,6.50
2019-03-13T23:59:35.477Z,6.40
